Date,TemperatureHighF,TemperatureAvgF,TemperatureLowF,DewpointHighF,DewpointAvgF,DewpointLowF,HumidityHigh,HumidityAvg,HumidityLow,PressureMaxIn,PressureMinIn,WindSpeedMaxMPH,WindSpeedAvgMPH,GustSpeedMaxMPH,PrecipitationSumIn
2013-9-1,70,63,57,57,52,47,82,69,52,30.03,29.77,13,0,13,0.00
2013-9-2,77,60,47,51,47,43,87,65,36,30.12,29.97,5,0,5,0.00
2013-9-3,87,70,54,61,54,47,79,60,39,29.98,29.89,12,1,12,0.00
2013-9-4,80,67,55,61,50,44,75,56,30,30.13,29.96,11,1,11,0.00
2013-9-5,90,74,58,66,57,47,70,57,43,30.14,29.92,16,1,16,0.00
2013-9-6,92,79,68,70,66,62,82,66,47,29.92,29.77,11,0,11,0.00
2013-9-7,87,75,66,68,62,56,83,64,44,29.99,29.81,16,1,16,0.00
2013-9-8,71,66,60,62,59,55,87,77,63,30.01,29.79,18,0,21,0.37
2013-9-9,75,68,64,68,64,60,89,86,77,29.79,29.56,27,0,27,0.47
2013-9-10,79,68,61,62,60,58,90,76,52,29.89,29.75,12,0,12,0.07
2013-9-11,83,68,58,61,53,47,86,62,31,30.12,29.88,9,1,18,0.00
2013-9-12,72,60,50,54,49,46,84,67,47,30.27,30.12,13,0,13,0.00
2013-9-13,78,63,51,54,49,46,84,63,39,30.21,29.92,17,2,17,0.00
2013-9-14,61,58,55,56,52,48,89,81,64,29.93,29.78,16,1,16,1.41
2013-9-15,64,56,48,55,48,42,89,75,49,30.30,29.93,13,0,13,0.00
2013-9-16,70,57,45,52,45,41,87,67,42,30.33,30.08,20,2,20,0.00
2013-9-17,66,59,53,56,51,45,82,76,69,30.09,29.78,22,3,22,0.00
2013-9-18,81,68,60,70,62,55,88,80,66,29.78,29.48,19,1,19,0.00
2013-9-19,76,66,57,63,57,50,89,73,45,29.82,29.54,19,1,19,0.01
2013-9-20,61,54,47,52,46,40,87,75,50,29.97,29.82,12,0,12,0.08
2013-9-21,65,53,42,46,43,38,88,69,47,30.02,29.84,6,0,6,0.00
2013-9-22,81,65,50,58,51,44,79,62,44,29.85,29.56,25,2,26,0.00
2013-9-23,80,70,62,55,52,51,68,55,40,29.75,29.58,32,4,32,0.00
2013-9-24,77,65,58,57,53,49,83,65,40,29.89,29.75,13,0,13,0.00
2013-9-25,79,64,54,58,53,49,85,67,44,29.86,29.68,8,1,26,0.00
2013-9-26,82,70,62,61,56,52,72,62,46,29.73,29.60,27,3,27,0.00
2013-9-27,65,56,52,55,49,46,87,77,69,29.77,29.66,13,0,13,0.03
2013-9-28,60,53,50,50,47,42,92,80,59,29.80,29.60,14,0,14,1.07
2013-9-29,78,60,46,51,45,39,78,59,30,29.81,29.49,12,1,22,0.00
2013-9-30,79,65,52,54,50,46,79,58,32,29.53,29.43,9,0,10,0.00